sensor_id;sensor_type;location;lat;lon;timestamp;P1;durP1;ratioP1;P2;durP2;ratioP2
43580;SDS011;29175;51.030;4.606;2022-12-15T00:00:50;125.18;;;49.45;;
43580;SDS011;29175;51.030;4.606;2022-12-15T00:03:34;127.93;;;50.50;;
43580;SDS011;29175;51.030;4.606;2022-12-15T00:06:18;127.45;;;50.42;;
43580;SDS011;29175;51.030;4.606;2022-12-15T00:09:03;148.98;;;52.45;;
43580;SDS011;29175;51.030;4.606;2022-12-15T00:11:47;133.77;;;49.65;;
43580;SDS011;29175;51.030;4.606;2022-12-15T00:14:31;136.88;;;52.13;;
43580;SDS011;29175;51.030;4.606;2022-12-15T00:17:16;145.55;;;53.30;;
43580;SDS011;29175;51.030;4.606;2022-12-15T00:20:00;145.15;;;54.38;;
43580;SDS011;29175;51.030;4.606;2022-12-15T00:22:44;149.68;;;54.35;;
43580;SDS011;29175;51.030;4.606;2022-12-15T00:25:28;157.23;;;57.08;;
43580;SDS011;29175;51.030;4.606;2022-12-15T00:28:12;134.13;;;53.30;;
43580;SDS011;29175;51.030;4.606;2022-12-15T00:30:57;139.88;;;53.78;;
43580;SDS011;29175;51.030;4.606;2022-12-15T00:33:42;146.60;;;56.15;;
43580;SDS011;29175;51.030;4.606;2022-12-15T00:36:27;133.38;;;52.45;;
43580;SDS011;29175;51.030;4.606;2022-12-15T00:39:11;135.32;;;52.88;;
43580;SDS011;29175;51.030;4.606;2022-12-15T00:41:37;131.45;;;51.60;;
43580;SDS011;29175;51.030;4.606;2022-12-15T00:44:03;126.10;;;50.97;;
43580;SDS011;29175;51.030;4.606;2022-12-15T00:46:29;138.07;;;51.90;;
43580;SDS011;29175;51.030;4.606;2022-12-15T00:49:13;138.13;;;53.55;;
43580;SDS011;29175;51.030;4.606;2022-12-15T00:51:57;138.90;;;51.78;;
43580;SDS011;29175;51.030;4.606;2022-12-15T00:54:41;138.40;;;49.88;;
43580;SDS011;29175;51.030;4.606;2022-12-15T00:57:26;137.75;;;53.60;;
43580;SDS011;29175;51.030;4.606;2022-12-15T01:00:10;148.68;;;54.50;;
43580;SDS011;29175;51.030;4.606;2022-12-15T01:02:54;153.63;;;56.58;;
43580;SDS011;29175;51.030;4.606;2022-12-15T01:05:39;142.80;;;50.33;;
43580;SDS011;29175;51.030;4.606;2022-12-15T01:08:23;127.95;;;50.03;;
43580;SDS011;29175;51.030;4.606;2022-12-15T01:11:07;134.27;;;52.55;;
43580;SDS011;29175;51.030;4.606;2022-12-15T01:13:51;133.25;;;50.60;;
43580;SDS011;29175;51.030;4.606;2022-12-15T01:16:35;143.02;;;54.83;;
43580;SDS011;29175;51.030;4.606;2022-12-15T01:19:20;137.38;;;49.45;;
43580;SDS011;29175;51.030;4.606;2022-12-15T01:22:05;138.93;;;50.80;;
43580;SDS011;29175;51.030;4.606;2022-12-15T01:24:31;163.98;;;57.75;;
43580;SDS011;29175;51.030;4.606;2022-12-15T01:26:57;178.07;;;61.08;;
43580;SDS011;29175;51.030;4.606;2022-12-15T01:29:23;170.95;;;59.33;;
43580;SDS011;29175;51.030;4.606;2022-12-15T01:31:49;154.43;;;55.90;;
43580;SDS011;29175;51.030;4.606;2022-12-15T01:34:15;133.45;;;53.47;;
43580;SDS011;29175;51.030;4.606;2022-12-15T01:36:43;137.18;;;54.10;;
43580;SDS011;29175;51.030;4.606;2022-12-15T01:39:10;127.32;;;51.28;;
43580;SDS011;29175;51.030;4.606;2022-12-15T01:41:36;147.00;;;52.55;;
43580;SDS011;29175;51.030;4.606;2022-12-15T01:44:16;134.20;;;51.25;;
43580;SDS011;29175;51.030;4.606;2022-12-15T01:46:51;126.30;;;49.10;;
43580;SDS011;29175;51.030;4.606;2022-12-15T01:49:23;140.68;;;52.38;;
43580;SDS011;29175;51.030;4.606;2022-12-15T01:51:52;134.15;;;50.35;;
43580;SDS011;29175;51.030;4.606;2022-12-15T01:54:25;133.30;;;50.60;;
43580;SDS011;29175;51.030;4.606;2022-12-15T01:56:58;140.05;;;53.80;;
43580;SDS011;29175;51.030;4.606;2022-12-15T01:59:30;130.50;;;50.92;;
43580;SDS011;29175;51.030;4.606;2022-12-15T02:01:59;142.57;;;51.25;;
43580;SDS011;29175;51.030;4.606;2022-12-15T02:04:26;129.40;;;50.58;;
43580;SDS011;29175;51.030;4.606;2022-12-15T02:06:52;127.72;;;50.72;;
43580;SDS011;29175;51.030;4.606;2022-12-15T02:09:18;126.28;;;48.10;;
43580;SDS011;29175;51.030;4.606;2022-12-15T02:23:12;145.05;;;48.08;;
43580;SDS011;29175;51.030;4.606;2022-12-15T02:31:53;116.05;;;44.05;;
43580;SDS011;29175;51.030;4.606;2022-12-15T02:34:35;121.25;;;46.60;;
43580;SDS011;29175;51.030;4.606;2022-12-15T02:37:11;105.00;;;43.70;;
43580;SDS011;29175;51.030;4.606;2022-12-15T02:39:43;112.00;;;45.90;;
43580;SDS011;29175;51.030;4.606;2022-12-15T02:42:12;127.10;;;46.63;;
43580;SDS011;29175;51.030;4.606;2022-12-15T02:44:42;117.72;;;46.97;;
43580;SDS011;29175;51.030;4.606;2022-12-15T02:50:05;112.28;;;43.90;;
43580;SDS011;29175;51.030;4.606;2022-12-15T02:58:26;114.40;;;42.90;;
43580;SDS011;29175;51.030;4.606;2022-12-15T03:01:13;104.70;;;42.92;;
43580;SDS011;29175;51.030;4.606;2022-12-15T03:03:50;108.85;;;42.78;;
43580;SDS011;29175;51.030;4.606;2022-12-15T03:06:17;108.03;;;42.67;;
43580;SDS011;29175;51.030;4.606;2022-12-15T03:08:44;121.75;;;44.17;;
43580;SDS011;29175;51.030;4.606;2022-12-15T03:11:10;119.10;;;41.65;;
43580;SDS011;29175;51.030;4.606;2022-12-15T03:13:36;115.68;;;42.20;;
43580;SDS011;29175;51.030;4.606;2022-12-15T03:16:02;109.90;;;43.60;;
43580;SDS011;29175;51.030;4.606;2022-12-15T03:18:27;98.95;;;42.25;;
43580;SDS011;29175;51.030;4.606;2022-12-15T03:20:53;103.25;;;43.88;;
43580;SDS011;29175;51.030;4.606;2022-12-15T03:23:19;107.80;;;41.92;;
43580;SDS011;29175;51.030;4.606;2022-12-15T03:25:47;105.40;;;42.67;;
43580;SDS011;29175;51.030;4.606;2022-12-15T03:28:12;109.65;;;43.60;;
43580;SDS011;29175;51.030;4.606;2022-12-15T03:30:38;94.78;;;37.88;;
43580;SDS011;29175;51.030;4.606;2022-12-15T03:33:04;94.97;;;39.58;;
43580;SDS011;29175;51.030;4.606;2022-12-15T03:35:29;119.25;;;40.40;;
43580;SDS011;29175;51.030;4.606;2022-12-15T03:37:55;120.63;;;40.70;;
43580;SDS011;29175;51.030;4.606;2022-12-15T03:40:21;98.35;;;37.90;;
43580;SDS011;29175;51.030;4.606;2022-12-15T03:42:47;97.85;;;38.17;;
43580;SDS011;29175;51.030;4.606;2022-12-15T03:45:13;103.57;;;41.95;;
43580;SDS011;29175;51.030;4.606;2022-12-15T03:47:43;108.75;;;39.05;;
43580;SDS011;29175;51.030;4.606;2022-12-15T03:50:10;111.97;;;40.85;;
43580;SDS011;29175;51.030;4.606;2022-12-15T03:52:36;96.07;;;40.13;;
43580;SDS011;29175;51.030;4.606;2022-12-15T03:55:02;99.20;;;39.13;;
43580;SDS011;29175;51.030;4.606;2022-12-15T03:57:29;98.57;;;39.15;;
43580;SDS011;29175;51.030;4.606;2022-12-15T03:59:54;91.20;;;37.22;;
43580;SDS011;29175;51.030;4.606;2022-12-15T04:02:21;97.60;;;39.60;;
43580;SDS011;29175;51.030;4.606;2022-12-15T04:04:47;105.97;;;38.17;;
43580;SDS011;29175;51.030;4.606;2022-12-15T04:07:13;103.53;;;37.15;;
43580;SDS011;29175;51.030;4.606;2022-12-15T04:09:39;98.15;;;38.97;;
43580;SDS011;29175;51.030;4.606;2022-12-15T04:12:05;96.60;;;37.90;;
43580;SDS011;29175;51.030;4.606;2022-12-15T04:14:31;97.40;;;37.38;;
43580;SDS011;29175;51.030;4.606;2022-12-15T04:16:57;100.15;;;37.40;;
43580;SDS011;29175;51.030;4.606;2022-12-15T04:19:23;84.07;;;34.88;;
43580;SDS011;29175;51.030;4.606;2022-12-15T04:22:09;102.03;;;39.15;;
43580;SDS011;29175;51.030;4.606;2022-12-15T04:24:36;101.28;;;38.65;;
43580;SDS011;29175;51.030;4.606;2022-12-15T04:27:20;92.35;;;36.47;;
43580;SDS011;29175;51.030;4.606;2022-12-15T04:30:04;100.57;;;36.22;;
43580;SDS011;29175;51.030;4.606;2022-12-15T04:32:48;97.85;;;37.20;;
43580;SDS011;29175;51.030;4.606;2022-12-15T04:35:33;92.07;;;34.40;;
43580;SDS011;29175;51.030;4.606;2022-12-15T04:38:18;99.28;;;37.75;;
43580;SDS011;29175;51.030;4.606;2022-12-15T04:41:03;91.88;;;35.90;;
43580;SDS011;29175;51.030;4.606;2022-12-15T04:43:47;106.60;;;39.25;;
43580;SDS011;29175;51.030;4.606;2022-12-15T04:46:32;102.88;;;37.00;;
43580;SDS011;29175;51.030;4.606;2022-12-15T04:49:17;88.10;;;37.13;;
43580;SDS011;29175;51.030;4.606;2022-12-15T04:52:01;99.30;;;38.55;;
43580;SDS011;29175;51.030;4.606;2022-12-15T04:54:47;90.20;;;35.85;;
43580;SDS011;29175;51.030;4.606;2022-12-15T04:57:31;88.00;;;33.83;;
43580;SDS011;29175;51.030;4.606;2022-12-15T05:00:15;94.05;;;34.55;;
43580;SDS011;29175;51.030;4.606;2022-12-15T05:03:06;92.78;;;36.03;;
43580;SDS011;29175;51.030;4.606;2022-12-15T05:05:50;88.00;;;33.65;;
43580;SDS011;29175;51.030;4.606;2022-12-15T05:08:34;89.38;;;35.17;;
43580;SDS011;29175;51.030;4.606;2022-12-15T05:11:18;100.32;;;35.67;;
43580;SDS011;29175;51.030;4.606;2022-12-15T05:14:03;91.43;;;35.47;;
43580;SDS011;29175;51.030;4.606;2022-12-15T05:16:47;102.07;;;35.78;;
43580;SDS011;29175;51.030;4.606;2022-12-15T05:19:32;89.78;;;33.97;;
43580;SDS011;29175;51.030;4.606;2022-12-15T05:22:16;85.43;;;33.45;;
43580;SDS011;29175;51.030;4.606;2022-12-15T05:25:00;98.13;;;34.00;;
43580;SDS011;29175;51.030;4.606;2022-12-15T05:27:44;88.15;;;33.30;;
43580;SDS011;29175;51.030;4.606;2022-12-15T05:30:29;101.53;;;33.17;;
43580;SDS011;29175;51.030;4.606;2022-12-15T05:33:13;96.88;;;36.65;;
43580;SDS011;29175;51.030;4.606;2022-12-15T05:35:38;83.20;;;32.45;;
43580;SDS011;29175;51.030;4.606;2022-12-15T05:38:04;100.30;;;35.67;;
43580;SDS011;29175;51.030;4.606;2022-12-15T05:40:30;95.80;;;35.15;;
43580;SDS011;29175;51.030;4.606;2022-12-15T05:42:57;97.18;;;36.17;;
43580;SDS011;29175;51.030;4.606;2022-12-15T05:45:25;103.28;;;37.50;;
43580;SDS011;29175;51.030;4.606;2022-12-15T05:47:52;90.75;;;35.08;;
43580;SDS011;29175;51.030;4.606;2022-12-15T05:50:19;95.18;;;37.13;;
43580;SDS011;29175;51.030;4.606;2022-12-15T05:52:47;81.10;;;32.95;;
43580;SDS011;29175;51.030;4.606;2022-12-15T05:55:15;106.53;;;37.20;;
43580;SDS011;29175;51.030;4.606;2022-12-15T05:57:41;97.53;;;34.28;;
43580;SDS011;29175;51.030;4.606;2022-12-15T06:00:07;98.82;;;35.50;;
43580;SDS011;29175;51.030;4.606;2022-12-15T06:02:34;95.13;;;36.03;;
43580;SDS011;29175;51.030;4.606;2022-12-15T06:05:00;85.25;;;33.00;;
43580;SDS011;29175;51.030;4.606;2022-12-15T06:07:26;84.43;;;34.90;;
43580;SDS011;29175;51.030;4.606;2022-12-15T06:09:52;96.97;;;35.20;;
43580;SDS011;29175;51.030;4.606;2022-12-15T06:12:18;85.00;;;34.75;;
43580;SDS011;29175;51.030;4.606;2022-12-15T06:14:45;88.22;;;33.78;;
43580;SDS011;29175;51.030;4.606;2022-12-15T06:17:12;94.78;;;33.88;;
43580;SDS011;29175;51.030;4.606;2022-12-15T06:19:38;109.18;;;34.55;;
43580;SDS011;29175;51.030;4.606;2022-12-15T06:22:04;101.50;;;36.17;;
43580;SDS011;29175;51.030;4.606;2022-12-15T06:24:29;102.03;;;34.63;;
43580;SDS011;29175;51.030;4.606;2022-12-15T06:26:55;84.78;;;34.72;;
43580;SDS011;29175;51.030;4.606;2022-12-15T06:29:21;99.93;;;38.28;;
43580;SDS011;29175;51.030;4.606;2022-12-15T06:31:47;108.10;;;36.22;;
43580;SDS011;29175;51.030;4.606;2022-12-15T06:34:13;114.43;;;36.17;;
43580;SDS011;29175;51.030;4.606;2022-12-15T06:36:41;92.13;;;33.60;;
43580;SDS011;29175;51.030;4.606;2022-12-15T06:39:07;103.10;;;36.15;;
43580;SDS011;29175;51.030;4.606;2022-12-15T06:44:02;97.15;;;34.65;;
43580;SDS011;29175;51.030;4.606;2022-12-15T06:46:29;97.20;;;35.38;;
43580;SDS011;29175;51.030;4.606;2022-12-15T06:48:56;92.65;;;35.33;;
43580;SDS011;29175;51.030;4.606;2022-12-15T06:51:22;83.20;;;31.92;;
43580;SDS011;29175;51.030;4.606;2022-12-15T06:53:48;85.80;;;31.55;;
43580;SDS011;29175;51.030;4.606;2022-12-15T06:56:17;86.57;;;34.20;;
43580;SDS011;29175;51.030;4.606;2022-12-15T06:58:47;104.40;;;36.35;;
43580;SDS011;29175;51.030;4.606;2022-12-15T07:01:13;96.32;;;36.45;;
43580;SDS011;29175;51.030;4.606;2022-12-15T07:03:39;128.88;;;36.35;;
43580;SDS011;29175;51.030;4.606;2022-12-15T07:06:06;94.95;;;36.63;;
43580;SDS011;29175;51.030;4.606;2022-12-15T07:08:34;95.57;;;36.00;;
43580;SDS011;29175;51.030;4.606;2022-12-15T07:11:03;99.55;;;36.45;;
43580;SDS011;29175;51.030;4.606;2022-12-15T07:13:31;92.47;;;35.53;;
43580;SDS011;29175;51.030;4.606;2022-12-15T07:16:00;103.60;;;36.53;;
43580;SDS011;29175;51.030;4.606;2022-12-15T07:18:27;99.45;;;36.72;;
43580;SDS011;29175;51.030;4.606;2022-12-15T07:20:55;107.13;;;36.47;;
43580;SDS011;29175;51.030;4.606;2022-12-15T07:23:26;102.45;;;35.28;;
43580;SDS011;29175;51.030;4.606;2022-12-15T07:25:54;92.68;;;32.75;;
43580;SDS011;29175;51.030;4.606;2022-12-15T07:28:20;108.50;;;36.05;;
43580;SDS011;29175;51.030;4.606;2022-12-15T07:33:14;94.70;;;34.83;;
43580;SDS011;29175;51.030;4.606;2022-12-15T07:35:40;97.97;;;36.30;;
43580;SDS011;29175;51.030;4.606;2022-12-15T07:38:06;94.22;;;38.22;;
43580;SDS011;29175;51.030;4.606;2022-12-15T07:40:33;101.25;;;36.38;;
43580;SDS011;29175;51.030;4.606;2022-12-15T07:43:02;95.85;;;35.42;;
43580;SDS011;29175;51.030;4.606;2022-12-15T07:45:28;112.28;;;35.70;;
43580;SDS011;29175;51.030;4.606;2022-12-15T07:47:54;99.70;;;35.70;;
43580;SDS011;29175;51.030;4.606;2022-12-15T07:50:19;84.97;;;35.25;;
43580;SDS011;29175;51.030;4.606;2022-12-15T07:52:45;112.55;;;37.10;;
43580;SDS011;29175;51.030;4.606;2022-12-15T07:55:11;100.75;;;36.22;;
43580;SDS011;29175;51.030;4.606;2022-12-15T07:57:38;106.15;;;36.85;;
43580;SDS011;29175;51.030;4.606;2022-12-15T08:00:04;95.15;;;33.83;;
43580;SDS011;29175;51.030;4.606;2022-12-15T08:02:31;103.90;;;35.83;;
43580;SDS011;29175;51.030;4.606;2022-12-15T08:04:57;94.57;;;35.35;;
43580;SDS011;29175;51.030;4.606;2022-12-15T08:07:22;106.70;;;38.22;;
43580;SDS011;29175;51.030;4.606;2022-12-15T08:09:48;113.75;;;40.58;;
43580;SDS011;29175;51.030;4.606;2022-12-15T08:12:14;120.30;;;42.88;;
43580;SDS011;29175;51.030;4.606;2022-12-15T08:14:41;103.90;;;40.38;;
43580;SDS011;29175;51.030;4.606;2022-12-15T08:17:06;120.78;;;42.22;;
43580;SDS011;29175;51.030;4.606;2022-12-15T08:19:32;115.22;;;40.92;;
43580;SDS011;29175;51.030;4.606;2022-12-15T08:21:58;116.97;;;43.42;;
43580;SDS011;29175;51.030;4.606;2022-12-15T08:24:23;100.03;;;38.83;;
43580;SDS011;29175;51.030;4.606;2022-12-15T08:26:49;109.32;;;37.75;;
43580;SDS011;29175;51.030;4.606;2022-12-15T08:29:15;98.55;;;38.10;;
43580;SDS011;29175;51.030;4.606;2022-12-15T08:31:40;106.30;;;38.05;;
43580;SDS011;29175;51.030;4.606;2022-12-15T08:34:06;103.32;;;38.72;;
43580;SDS011;29175;51.030;4.606;2022-12-15T08:36:32;100.75;;;36.42;;
43580;SDS011;29175;51.030;4.606;2022-12-15T08:38:59;100.47;;;38.10;;
43580;SDS011;29175;51.030;4.606;2022-12-15T08:41:27;106.30;;;37.50;;
43580;SDS011;29175;51.030;4.606;2022-12-15T08:43:55;135.20;;;40.85;;
43580;SDS011;29175;51.030;4.606;2022-12-15T08:46:24;126.55;;;37.72;;
43580;SDS011;29175;51.030;4.606;2022-12-15T08:48:52;118.90;;;38.40;;
43580;SDS011;29175;51.030;4.606;2022-12-15T08:51:18;102.03;;;36.53;;
43580;SDS011;29175;51.030;4.606;2022-12-15T08:53:45;112.40;;;40.05;;
43580;SDS011;29175;51.030;4.606;2022-12-15T08:56:12;115.18;;;40.88;;
43580;SDS011;29175;51.030;4.606;2022-12-15T08:58:39;109.47;;;38.93;;
43580;SDS011;29175;51.030;4.606;2022-12-15T09:01:12;101.35;;;38.78;;
43580;SDS011;29175;51.030;4.606;2022-12-15T09:03:41;107.55;;;39.22;;
43580;SDS011;29175;51.030;4.606;2022-12-15T09:06:10;98.15;;;37.83;;
43580;SDS011;29175;51.030;4.606;2022-12-15T09:08:38;111.32;;;39.28;;
43580;SDS011;29175;51.030;4.606;2022-12-15T09:11:04;109.03;;;40.08;;
43580;SDS011;29175;51.030;4.606;2022-12-15T09:13:30;114.03;;;42.10;;
43580;SDS011;29175;51.030;4.606;2022-12-15T09:16:00;97.22;;;38.38;;
43580;SDS011;29175;51.030;4.606;2022-12-15T09:18:27;122.57;;;43.50;;
43580;SDS011;29175;51.030;4.606;2022-12-15T09:20:53;117.05;;;41.75;;
43580;SDS011;29175;51.030;4.606;2022-12-15T09:23:19;103.38;;;40.45;;
43580;SDS011;29175;51.030;4.606;2022-12-15T09:25:45;108.55;;;40.35;;
43580;SDS011;29175;51.030;4.606;2022-12-15T09:28:11;111.40;;;40.88;;
43580;SDS011;29175;51.030;4.606;2022-12-15T09:30:38;117.88;;;43.70;;
43580;SDS011;29175;51.030;4.606;2022-12-15T09:33:03;117.63;;;42.13;;
43580;SDS011;29175;51.030;4.606;2022-12-15T09:35:29;102.28;;;40.10;;
43580;SDS011;29175;51.030;4.606;2022-12-15T09:37:55;108.05;;;39.17;;
43580;SDS011;29175;51.030;4.606;2022-12-15T09:40:22;112.03;;;41.22;;
43580;SDS011;29175;51.030;4.606;2022-12-15T09:42:53;106.32;;;40.33;;
43580;SDS011;29175;51.030;4.606;2022-12-15T09:45:21;127.65;;;43.50;;
43580;SDS011;29175;51.030;4.606;2022-12-15T09:48:13;118.90;;;40.80;;
43580;SDS011;29175;51.030;4.606;2022-12-15T09:50:38;102.50;;;40.47;;
43580;SDS011;29175;51.030;4.606;2022-12-15T09:53:08;111.68;;;40.65;;
43580;SDS011;29175;51.030;4.606;2022-12-15T09:55:36;109.55;;;40.97;;
43580;SDS011;29175;51.030;4.606;2022-12-15T09:58:25;99.72;;;39.03;;
43580;SDS011;29175;51.030;4.606;2022-12-15T10:01:11;102.03;;;40.05;;
43580;SDS011;29175;51.030;4.606;2022-12-15T10:06:36;112.65;;;38.35;;
43580;SDS011;29175;51.030;4.606;2022-12-15T10:09:25;116.38;;;39.65;;
43580;SDS011;29175;51.030;4.606;2022-12-15T10:20:22;94.13;;;39.58;;
43580;SDS011;29175;51.030;4.606;2022-12-15T10:22:50;90.10;;;39.60;;
43580;SDS011;29175;51.030;4.606;2022-12-15T10:25:18;101.35;;;37.92;;
43580;SDS011;29175;51.030;4.606;2022-12-15T10:33:35;102.05;;;38.03;;
43580;SDS011;29175;51.030;4.606;2022-12-15T10:36:07;97.90;;;37.88;;
43580;SDS011;29175;51.030;4.606;2022-12-15T10:38:37;95.97;;;37.45;;
43580;SDS011;29175;51.030;4.606;2022-12-15T10:41:22;98.22;;;38.08;;
43580;SDS011;29175;51.030;4.606;2022-12-15T10:43:52;99.57;;;36.80;;
43580;SDS011;29175;51.030;4.606;2022-12-15T10:46:28;88.63;;;35.55;;
43580;SDS011;29175;51.030;4.606;2022-12-15T10:48:57;86.72;;;36.42;;
43580;SDS011;29175;51.030;4.606;2022-12-15T10:51:28;91.60;;;35.58;;
43580;SDS011;29175;51.030;4.606;2022-12-15T11:04:58;94.53;;;34.58;;
43580;SDS011;29175;51.030;4.606;2022-12-15T11:07:27;85.20;;;33.58;;
43580;SDS011;29175;51.030;4.606;2022-12-15T11:09:58;84.25;;;34.08;;
43580;SDS011;29175;51.030;4.606;2022-12-15T11:12:26;90.55;;;35.97;;
43580;SDS011;29175;51.030;4.606;2022-12-15T11:20:41;104.35;;;35.85;;
43580;SDS011;29175;51.030;4.606;2022-12-15T11:23:18;82.20;;;34.38;;
43580;SDS011;29175;51.030;4.606;2022-12-15T11:25:59;85.15;;;33.50;;
43580;SDS011;29175;51.030;4.606;2022-12-15T11:28:43;95.07;;;35.35;;
43580;SDS011;29175;51.030;4.606;2022-12-15T11:31:20;85.75;;;34.40;;
43580;SDS011;29175;51.030;4.606;2022-12-15T11:33:54;92.43;;;36.90;;
43580;SDS011;29175;51.030;4.606;2022-12-15T11:39:17;87.78;;;33.60;;
43580;SDS011;29175;51.030;4.606;2022-12-15T11:42:12;77.10;;;33.03;;
43580;SDS011;29175;51.030;4.606;2022-12-15T11:45:01;85.72;;;34.33;;
43580;SDS011;29175;51.030;4.606;2022-12-15T11:47:42;81.97;;;33.47;;
43580;SDS011;29175;51.030;4.606;2022-12-15T11:50:25;84.60;;;34.38;;
43580;SDS011;29175;51.030;4.606;2022-12-15T12:01:13;92.55;;;35.10;;
43580;SDS011;29175;51.030;4.606;2022-12-15T12:04:03;86.75;;;33.78;;
43580;SDS011;29175;51.030;4.606;2022-12-15T12:06:53;84.65;;;32.22;;
43580;SDS011;29175;51.030;4.606;2022-12-15T12:12:24;78.40;;;32.30;;
43580;SDS011;29175;51.030;4.606;2022-12-15T12:15:31;75.82;;;30.73;;
43580;SDS011;29175;51.030;4.606;2022-12-15T12:18:26;118.50;;;34.30;;
43580;SDS011;29175;51.030;4.606;2022-12-15T12:23:33;76.78;;;31.25;;
43580;SDS011;29175;51.030;4.606;2022-12-15T12:26:18;80.35;;;32.60;;
43580;SDS011;29175;51.030;4.606;2022-12-15T12:28:49;80.68;;;32.08;;
43580;SDS011;29175;51.030;4.606;2022-12-15T12:31:18;91.53;;;32.28;;
43580;SDS011;29175;51.030;4.606;2022-12-15T12:34:08;65.30;;;30.87;;
43580;SDS011;29175;51.030;4.606;2022-12-15T12:36:40;73.93;;;31.65;;
43580;SDS011;29175;51.030;4.606;2022-12-15T12:39:08;83.93;;;31.88;;
43580;SDS011;29175;51.030;4.606;2022-12-15T12:41:50;79.80;;;33.42;;
43580;SDS011;29175;51.030;4.606;2022-12-15T12:44:32;79.18;;;31.50;;
43580;SDS011;29175;51.030;4.606;2022-12-15T12:49:47;82.05;;;33.50;;
43580;SDS011;29175;51.030;4.606;2022-12-15T12:52:22;76.60;;;31.48;;
43580;SDS011;29175;51.030;4.606;2022-12-15T12:55:23;76.05;;;31.80;;
43580;SDS011;29175;51.030;4.606;2022-12-15T12:57:50;74.90;;;30.15;;
43580;SDS011;29175;51.030;4.606;2022-12-15T13:00:18;76.53;;;30.75;;
43580;SDS011;29175;51.030;4.606;2022-12-15T13:02:56;83.50;;;30.50;;
43580;SDS011;29175;51.030;4.606;2022-12-15T13:05:44;89.47;;;31.50;;
43580;SDS011;29175;51.030;4.606;2022-12-15T13:15:57;73.75;;;30.05;;
43580;SDS011;29175;51.030;4.606;2022-12-15T13:18:25;68.38;;;28.38;;
43580;SDS011;29175;51.030;4.606;2022-12-15T13:20:55;78.05;;;30.40;;
43580;SDS011;29175;51.030;4.606;2022-12-15T13:44:14;83.97;;;31.90;;
43580;SDS011;29175;51.030;4.606;2022-12-15T13:46:49;75.60;;;31.67;;
43580;SDS011;29175;51.030;4.606;2022-12-15T13:52:07;78.40;;;30.30;;
43580;SDS011;29175;51.030;4.606;2022-12-15T13:54:40;73.75;;;29.33;;
43580;SDS011;29175;51.030;4.606;2022-12-15T13:57:14;72.03;;;28.88;;
43580;SDS011;29175;51.030;4.606;2022-12-15T13:59:42;92.45;;;31.27;;
43580;SDS011;29175;51.030;4.606;2022-12-15T14:13:00;57.88;;;24.15;;
43580;SDS011;29175;51.030;4.606;2022-12-15T14:15:35;68.40;;;29.88;;
43580;SDS011;29175;51.030;4.606;2022-12-15T14:18:17;80.43;;;28.77;;
43580;SDS011;29175;51.030;4.606;2022-12-15T14:20:46;74.30;;;29.48;;
43580;SDS011;29175;51.030;4.606;2022-12-15T14:23:22;74.15;;;28.77;;
43580;SDS011;29175;51.030;4.606;2022-12-15T14:25:51;70.80;;;29.08;;
43580;SDS011;29175;51.030;4.606;2022-12-15T14:28:26;74.07;;;29.98;;
43580;SDS011;29175;51.030;4.606;2022-12-15T14:30:59;72.30;;;29.00;;
43580;SDS011;29175;51.030;4.606;2022-12-15T14:33:30;83.93;;;31.05;;
43580;SDS011;29175;51.030;4.606;2022-12-15T14:36:00;73.07;;;29.88;;
43580;SDS011;29175;51.030;4.606;2022-12-15T14:39:11;76.38;;;31.30;;
43580;SDS011;29175;51.030;4.606;2022-12-15T14:41:18;73.30;;;30.52;;
43580;SDS011;29175;51.030;4.606;2022-12-15T14:43:48;75.85;;;30.58;;
43580;SDS011;29175;51.030;4.606;2022-12-15T14:46:20;74.22;;;29.92;;
43580;SDS011;29175;51.030;4.606;2022-12-15T14:48:56;68.63;;;29.17;;
43580;SDS011;29175;51.030;4.606;2022-12-15T14:51:25;73.00;;;30.20;;
43580;SDS011;29175;51.030;4.606;2022-12-15T14:53:53;82.82;;;29.83;;
43580;SDS011;29175;51.030;4.606;2022-12-15T14:58:59;79.32;;;31.08;;
43580;SDS011;29175;51.030;4.606;2022-12-15T15:05:05;86.93;;;31.02;;
43580;SDS011;29175;51.030;4.606;2022-12-15T15:07:48;75.80;;;29.83;;
43580;SDS011;29175;51.030;4.606;2022-12-15T15:10:22;75.28;;;27.65;;
43580;SDS011;29175;51.030;4.606;2022-12-15T15:12:53;68.60;;;28.40;;
43580;SDS011;29175;51.030;4.606;2022-12-15T15:15:19;66.78;;;25.85;;
43580;SDS011;29175;51.030;4.606;2022-12-15T15:20:27;60.40;;;26.08;;
43580;SDS011;29175;51.030;4.606;2022-12-15T15:23:12;70.82;;;29.05;;
43580;SDS011;29175;51.030;4.606;2022-12-15T15:25:52;72.75;;;27.23;;
43580;SDS011;29175;51.030;4.606;2022-12-15T15:31:00;52.87;;;20.67;;
43580;SDS011;29175;51.030;4.606;2022-12-15T15:33:47;64.65;;;26.95;;
43580;SDS011;29175;51.030;4.606;2022-12-15T15:36:14;61.22;;;26.40;;
43580;SDS011;29175;51.030;4.606;2022-12-15T15:38:40;76.30;;;28.45;;
43580;SDS011;29175;51.030;4.606;2022-12-15T15:41:19;83.25;;;29.25;;
43580;SDS011;29175;51.030;4.606;2022-12-15T15:43:51;78.90;;;27.90;;
43580;SDS011;29175;51.030;4.606;2022-12-15T15:46:17;73.53;;;29.20;;
43580;SDS011;29175;51.030;4.606;2022-12-15T15:48:50;72.73;;;28.27;;
43580;SDS011;29175;51.030;4.606;2022-12-15T15:51:19;81.22;;;29.88;;
43580;SDS011;29175;51.030;4.606;2022-12-15T15:53:46;79.97;;;28.63;;
43580;SDS011;29175;51.030;4.606;2022-12-15T15:56:13;100.95;;;32.42;;
43580;SDS011;29175;51.030;4.606;2022-12-15T15:58:40;87.38;;;31.02;;
43580;SDS011;29175;51.030;4.606;2022-12-15T16:01:08;96.88;;;30.88;;
43580;SDS011;29175;51.030;4.606;2022-12-15T16:03:33;84.78;;;31.17;;
43580;SDS011;29175;51.030;4.606;2022-12-15T16:06:00;93.75;;;34.60;;
43580;SDS011;29175;51.030;4.606;2022-12-15T16:08:27;94.90;;;32.90;;
43580;SDS011;29175;51.030;4.606;2022-12-15T16:10:59;87.15;;;30.02;;
43580;SDS011;29175;51.030;4.606;2022-12-15T16:13:26;93.55;;;31.42;;
43580;SDS011;29175;51.030;4.606;2022-12-15T16:15:52;81.35;;;31.67;;
43580;SDS011;29175;51.030;4.606;2022-12-15T16:18:18;96.55;;;32.08;;
43580;SDS011;29175;51.030;4.606;2022-12-15T16:20:48;84.40;;;31.02;;
43580;SDS011;29175;51.030;4.606;2022-12-15T16:23:17;64.72;;;28.20;;
43580;SDS011;29175;51.030;4.606;2022-12-15T16:25:53;93.93;;;33.75;;
43580;SDS011;29175;51.030;4.606;2022-12-15T16:28:22;89.85;;;34.88;;
43580;SDS011;29175;51.030;4.606;2022-12-15T16:30:52;80.15;;;32.33;;
43580;SDS011;29175;51.030;4.606;2022-12-15T16:33:20;86.80;;;32.05;;
43580;SDS011;29175;51.030;4.606;2022-12-15T16:35:46;79.35;;;29.77;;
43580;SDS011;29175;51.030;4.606;2022-12-15T16:38:36;82.75;;;30.55;;
43580;SDS011;29175;51.030;4.606;2022-12-15T16:41:05;90.68;;;35.00;;
43580;SDS011;29175;51.030;4.606;2022-12-15T16:43:32;76.28;;;31.50;;
43580;SDS011;29175;51.030;4.606;2022-12-15T16:45:58;85.72;;;32.80;;
43580;SDS011;29175;51.030;4.606;2022-12-15T16:48:24;82.35;;;32.83;;
43580;SDS011;29175;51.030;4.606;2022-12-15T16:50:51;83.13;;;32.42;;
43580;SDS011;29175;51.030;4.606;2022-12-15T16:53:21;98.47;;;35.97;;
43580;SDS011;29175;51.030;4.606;2022-12-15T16:58:44;93.13;;;35.05;;
43580;SDS011;29175;51.030;4.606;2022-12-15T17:01:10;95.53;;;35.50;;
43580;SDS011;29175;51.030;4.606;2022-12-15T17:03:36;100.03;;;35.63;;
43580;SDS011;29175;51.030;4.606;2022-12-15T17:06:03;129.13;;;46.78;;